createdAt,value
2017-10-09T00:00:10.711Z,87.24
2017-10-09T00:02:39.926Z,87.40
2017-10-09T00:05:09.159Z,87.52
2017-10-09T00:07:39.143Z,87.63
2017-10-09T00:10:08.377Z,87.45
2017-10-09T00:12:38.592Z,87.66
2017-10-09T00:15:08.551Z,87.61
2017-10-09T00:17:37.759Z,87.78
2017-10-09T00:20:06.947Z,87.70
2017-10-09T00:22:36.177Z,87.53
2017-10-09T00:25:05.421Z,87.52
2017-10-09T00:27:34.624Z,87.26
2017-10-09T00:30:03.863Z,87.09
2017-10-09T00:32:33.131Z,87.18
2017-10-09T00:35:02.360Z,87.33
2017-10-09T00:37:31.571Z,87.53
2017-10-09T00:40:00.862Z,87.46
2017-10-09T00:42:30.102Z,87.43
2017-10-09T00:44:59.402Z,87.35
2017-10-09T00:47:28.875Z,87.37
2017-10-09T00:49:58.879Z,87.46
2017-10-09T00:52:28.092Z,87.06
2017-10-09T00:54:58.105Z,87.13
2017-10-09T00:57:28.076Z,87.18
2017-10-09T00:59:58.015Z,87.10
2017-10-09T01:02:27.211Z,86.95
2017-10-09T01:04:56.415Z,87.13
2017-10-09T01:07:26.407Z,87.26
2017-10-09T01:09:55.621Z,87.28
2017-10-09T01:12:26.579Z,87.42
2017-10-09T01:14:55.772Z,87.39
2017-10-09T01:17:25.052Z,87.57
2017-10-09T01:19:54.267Z,87.46
2017-10-09T01:22:23.544Z,87.70
2017-10-09T01:24:52.792Z,87.89
2017-10-09T01:27:22.013Z,88.17
2017-10-09T01:29:51.324Z,88.19
2017-10-09T01:32:20.520Z,88.21
2017-10-09T01:34:49.724Z,88.21
2017-10-09T01:37:18.953Z,88.31
2017-10-09T01:39:48.172Z,88.28
2017-10-09T01:42:18.154Z,88.24
2017-10-09T01:44:47.455Z,88.01
2017-10-09T01:47:16.670Z,88.09
2017-10-09T01:49:46.642Z,87.78
2017-10-09T01:52:15.863Z,87.45
2017-10-09T01:54:45.862Z,87.70
2017-10-09T01:57:15.069Z,87.78
2017-10-09T01:59:44.259Z,88.02
2017-10-09T02:02:13.475Z,87.89
2017-10-09T02:04:42.678Z,87.94
2017-10-09T02:07:11.883Z,88.02
2017-10-09T02:09:41.091Z,88.42
2017-10-09T02:12:11.152Z,88.30
2017-10-09T02:14:40.402Z,88.44
2017-10-09T02:17:10.370Z,88.43
2017-10-09T02:19:39.595Z,88.23
2017-10-09T02:22:08.859Z,88.62
2017-10-09T02:24:38.055Z,88.67
2017-10-09T02:27:07.264Z,88.91
2017-10-09T02:29:36.480Z,88.59
2017-10-09T02:32:05.671Z,88.56
2017-10-09T02:34:34.908Z,88.70
2017-10-09T02:37:04.919Z,88.75
2017-10-09T02:39:34.891Z,88.67
2017-10-09T02:42:04.116Z,88.74
2017-10-09T02:44:33.330Z,88.78
2017-10-09T02:47:03.295Z,88.76
2017-10-09T02:49:32.485Z,88.77
2017-10-09T02:52:01.718Z,88.58
2017-10-09T02:54:30.916Z,88.78
2017-10-09T02:57:00.130Z,88.77
2017-10-09T02:59:29.339Z,88.63
2017-10-09T03:01:59.307Z,88.35
2017-10-09T03:04:28.541Z,88.51
2017-10-09T03:06:58.510Z,88.74
2017-10-09T03:09:27.715Z,88.71
2017-10-09T03:11:56.952Z,88.75
2017-10-09T03:14:26.959Z,88.92
2017-10-09T03:16:56.273Z,89.12
2017-10-09T03:19:26.242Z,89.04
2017-10-09T03:21:55.440Z,89.19
2017-10-09T03:37:47.267Z,88.53
2017-10-09T03:40:16.502Z,88.59
2017-10-09T03:42:45.704Z,88.77
2017-10-09T03:45:14.918Z,88.97
2017-10-09T03:47:44.118Z,88.87
2017-10-09T03:50:13.321Z,88.72
2017-10-09T03:52:42.550Z,88.69
2017-10-09T03:55:11.764Z,88.58
2017-10-09T03:57:40.979Z,88.06
2017-10-09T04:00:10.947Z,88.29
2017-10-09T04:02:40.193Z,88.38
2017-10-09T04:05:09.393Z,88.69
2017-10-09T04:07:39.368Z,88.71
2017-10-09T04:10:08.614Z,88.79
2017-10-09T04:12:37.819Z,88.74
2017-10-09T04:15:07.051Z,88.67
2017-10-09T04:17:36.251Z,88.79
2017-10-09T04:20:05.488Z,89.20
2017-10-09T04:22:35.555Z,89.22
2017-10-09T04:25:04.811Z,89.17
2017-10-09T04:27:34.806Z,89.17
2017-10-09T04:30:03.999Z,89.14
2017-10-09T04:32:33.207Z,89.17
2017-10-09T04:35:03.187Z,89.09
2017-10-09T04:37:32.409Z,89.29
2017-10-09T04:40:01.601Z,89.00
2017-10-09T04:42:30.843Z,89.12
2017-10-09T04:45:00.068Z,89.05
2017-10-09T04:47:29.259Z,88.81
2017-10-09T04:49:58.478Z,89.02
2017-10-09T04:52:27.698Z,88.97
2017-10-09T04:54:56.910Z,89.06
2017-10-09T04:57:26.110Z,89.26
2017-10-09T04:59:56.092Z,89.25
2017-10-09T05:02:25.295Z,88.98
2017-10-09T05:04:54.579Z,89.17
2017-10-09T05:07:23.787Z,89.18
2017-10-09T05:09:53.021Z,89.04
2017-10-09T05:12:22.995Z,88.77
2017-10-09T05:14:52.299Z,88.98
2017-10-09T05:17:23.015Z,88.46
2017-10-09T05:19:52.224Z,88.47
2017-10-09T05:22:21.452Z,88.50
2017-10-09T05:24:51.419Z,88.52
2017-10-09T05:27:20.632Z,88.36
2017-10-09T05:29:49.827Z,88.18
2017-10-09T05:32:19.070Z,88.06
2017-10-09T05:34:49.026Z,87.97
2017-10-09T05:37:18.268Z,87.97
2017-10-09T05:39:47.448Z,88.02
2017-10-09T05:42:16.868Z,88.17
2017-10-09T05:44:46.860Z,88.29
2017-10-09T05:47:16.112Z,88.39
2017-10-09T05:49:45.342Z,88.40
2017-10-09T05:52:14.829Z,88.26
2017-10-09T05:54:44.026Z,88.21
2017-10-09T05:57:13.233Z,88.16
2017-10-09T05:59:42.460Z,88.16
2017-10-09T06:02:11.881Z,88.33
2017-10-09T06:04:41.106Z,88.58
2017-10-09T06:07:11.054Z,88.52
2017-10-09T06:09:40.259Z,88.61
2017-10-09T06:12:09.490Z,88.46
2017-10-09T06:14:38.682Z,88.31
2017-10-09T06:17:07.869Z,88.23
2017-10-09T06:19:37.083Z,88.31
2017-10-09T06:22:07.068Z,88.37
2017-10-09T06:24:36.311Z,88.35
2017-10-09T06:27:05.506Z,88.45
2017-10-09T06:29:34.702Z,88.36
2017-10-09T06:32:03.927Z,87.89
2017-10-09T06:34:33.131Z,87.99
2017-10-09T06:37:02.386Z,88.24
2017-10-09T06:39:32.340Z,87.86
2017-10-09T06:42:01.605Z,88.00
2017-10-09T06:44:30.836Z,88.03
2017-10-09T06:47:00.791Z,87.81
2017-10-09T06:49:30.002Z,88.04
2017-10-09T06:51:59.252Z,87.92
2017-10-09T06:54:28.479Z,87.82
2017-10-09T06:56:57.678Z,87.74
2017-10-09T06:59:27.675Z,87.35
2017-10-09T07:01:56.884Z,87.48
2017-10-09T07:04:26.099Z,87.19
2017-10-09T07:06:55.310Z,86.78
2017-10-09T07:09:24.520Z,86.85
2017-10-09T07:11:54.496Z,86.40
2017-10-09T07:14:23.706Z,86.80
2017-10-09T07:16:52.979Z,86.62
2017-10-09T07:19:22.208Z,86.65
2017-10-09T07:21:51.414Z,86.53
2017-10-09T07:24:21.388Z,86.56
2017-10-09T07:26:50.620Z,86.62
2017-10-09T07:29:19.819Z,86.51
2017-10-09T07:31:49.063Z,86.02
2017-10-09T07:34:18.331Z,86.15
2017-10-09T07:36:47.549Z,86.10
2017-10-09T07:39:16.774Z,85.76
2017-10-09T07:41:45.994Z,85.59
2017-10-09T07:44:15.194Z,85.42
2017-10-09T07:46:45.223Z,85.04
2017-10-09T07:49:15.224Z,85.08
2017-10-09T07:51:44.503Z,84.94
2017-10-09T07:54:14.506Z,84.81
2017-10-09T07:56:43.764Z,84.92
2017-10-09T07:59:12.988Z,85.02
2017-10-09T08:01:42.186Z,84.97
2017-10-09T08:04:11.407Z,84.56
2017-10-09T08:06:40.620Z,84.64
2017-10-09T08:09:09.881Z,84.34
2017-10-09T08:11:39.082Z,83.96
2017-10-09T08:14:08.303Z,84.10
2017-10-09T08:16:37.565Z,83.83
2017-10-09T08:19:06.783Z,83.44
2017-10-09T08:21:36.118Z,82.49
2017-10-09T08:24:05.350Z,82.35
2017-10-09T08:26:34.566Z,82.39
2017-10-09T08:29:03.811Z,82.30
2017-10-09T08:31:33.058Z,82.09
2017-10-09T08:34:02.286Z,81.83
2017-10-09T08:36:31.522Z,81.80
2017-10-09T08:39:01.503Z,81.66
2017-10-09T08:41:30.727Z,81.32
2017-10-09T08:44:00.752Z,81.15
2017-10-09T08:46:29.951Z,80.09
2017-10-09T08:48:59.194Z,80.00
2017-10-09T08:51:28.412Z,80.10
2017-10-09T08:53:57.791Z,80.69
2017-10-09T08:56:27.057Z,80.46
2017-10-09T08:58:57.211Z,80.23
2017-10-09T09:01:26.434Z,80.57
2017-10-09T09:03:55.642Z,80.62
2017-10-09T09:06:24.869Z,79.65
2017-10-09T09:08:54.839Z,79.80
2017-10-09T09:11:24.063Z,79.72
2017-10-09T09:13:54.175Z,79.74
2017-10-09T09:16:23.401Z,79.73
2017-10-09T09:18:52.609Z,79.33
2017-10-09T09:21:21.851Z,78.53
2017-10-09T09:23:51.059Z,78.67
2017-10-09T09:26:20.266Z,78.93
2017-10-09T09:28:49.495Z,78.50
2017-10-09T09:31:18.711Z,79.06
2017-10-09T09:33:47.924Z,79.35
2017-10-09T09:36:17.135Z,79.46
2017-10-09T09:38:46.353Z,79.29
2017-10-09T09:41:15.592Z,79.84
2017-10-09T09:43:44.844Z,79.81
2017-10-09T09:46:14.058Z,79.83
2017-10-09T09:48:44.037Z,80.28
2017-10-09T09:51:13.252Z,79.99
2017-10-09T09:53:42.526Z,80.59
2017-10-09T09:56:11.735Z,80.56
2017-10-09T09:58:40.959Z,80.28
2017-10-09T10:01:10.208Z,80.11
2017-10-09T10:03:39.423Z,80.54
2017-10-09T10:06:10.146Z,80.49
2017-10-09T10:08:39.495Z,81.22
2017-10-09T10:11:08.735Z,80.86
2017-10-09T10:13:37.954Z,80.66
2017-10-09T10:16:07.186Z,81.72
2017-10-09T10:18:37.214Z,82.63
2017-10-09T10:21:07.533Z,82.41
2017-10-09T10:23:37.561Z,82.37
2017-10-09T10:26:07.526Z,82.62
2017-10-09T10:28:36.763Z,83.04
2017-10-09T10:31:07.043Z,83.26
2017-10-09T10:33:36.260Z,82.89
2017-10-09T10:36:05.607Z,82.85
2017-10-09T10:38:34.981Z,83.20
2017-10-09T10:41:05.071Z,82.57
2017-10-09T10:43:34.310Z,82.85
2017-10-09T10:46:03.556Z,83.17
2017-10-09T10:48:32.815Z,82.81
2017-10-09T10:51:02.020Z,82.58
2017-10-09T10:53:31.291Z,82.41
2017-10-09T10:56:01.262Z,83.09
2017-10-09T10:58:30.483Z,82.67
2017-10-09T11:00:59.760Z,82.78
2017-10-09T11:03:29.757Z,83.00
2017-10-09T11:05:58.967Z,82.89
2017-10-09T11:08:28.526Z,83.04
2017-10-09T11:10:58.498Z,83.32
2017-10-09T11:13:27.747Z,83.62
2017-10-09T11:15:56.981Z,84.04
2017-10-09T11:18:26.215Z,84.15
2017-10-09T11:20:56.195Z,84.08
2017-10-09T11:23:25.422Z,83.90
2017-10-09T11:25:54.641Z,83.50
2017-10-09T11:28:24.631Z,84.00
2017-10-09T11:30:53.859Z,83.61
2017-10-09T11:33:23.843Z,84.15
2017-10-09T11:35:53.072Z,83.78
2017-10-09T11:38:23.083Z,84.01
2017-10-09T11:40:52.280Z,84.02
2017-10-09T11:43:22.251Z,83.60
2017-10-09T11:45:51.511Z,83.16
2017-10-09T11:48:20.729Z,83.08
2017-10-09T11:50:49.995Z,83.32
2017-10-09T11:53:19.982Z,83.53
2017-10-09T11:55:49.238Z,83.58
2017-10-09T11:58:18.497Z,83.40
2017-10-09T12:00:47.709Z,83.09
2017-10-09T12:03:16.966Z,83.29
2017-10-09T12:05:46.198Z,83.13
2017-10-09T12:08:15.575Z,82.60
2017-10-09T12:10:44.853Z,82.46
2017-10-09T12:13:14.075Z,81.93
2017-10-09T12:15:43.342Z,81.91
2017-10-09T12:18:12.579Z,81.46
2017-10-09T12:20:41.791Z,82.23
2017-10-09T12:23:11.792Z,82.55
2017-10-09T12:25:41.790Z,82.41
2017-10-09T12:28:11.087Z,82.26
2017-10-09T12:30:41.096Z,82.68
2017-10-09T12:33:10.324Z,82.08
2017-10-09T12:35:39.576Z,81.75
2017-10-09T12:38:08.791Z,81.96
2017-10-09T12:40:37.997Z,81.76
2017-10-09T12:43:07.233Z,81.72
2017-10-09T12:45:36.489Z,81.60
2017-10-09T12:48:05.747Z,81.80
2017-10-09T12:50:34.964Z,82.12
2017-10-09T12:53:04.147Z,82.85
2017-10-09T12:55:33.352Z,82.96
2017-10-09T12:58:02.579Z,82.75
2017-10-09T13:00:31.823Z,82.90
2017-10-09T13:09:10.184Z,82.59
2017-10-09T13:11:39.417Z,82.03
2017-10-09T13:14:08.912Z,82.59
2017-10-09T13:16:38.123Z,82.35
2017-10-09T13:19:07.483Z,81.85
2017-10-09T13:21:36.692Z,81.87
2017-10-09T13:24:05.968Z,81.69
2017-10-09T13:26:35.951Z,81.48
2017-10-09T13:29:05.231Z,80.20
2017-10-09T13:31:34.440Z,80.65
2017-10-09T13:34:03.655Z,80.81
2017-10-09T13:36:33.959Z,79.78
2017-10-09T13:39:06.136Z,80.29
2017-10-09T13:41:35.427Z,79.79
2017-10-09T13:44:04.666Z,79.86
2017-10-09T13:46:34.659Z,79.89
2017-10-09T14:18:58.133Z,80.43
2017-10-09T14:21:27.364Z,79.44
2017-10-09T14:23:56.621Z,79.71
2017-10-09T14:26:25.828Z,79.38
2017-10-09T14:28:55.067Z,78.80
2017-10-09T14:41:21.192Z,79.08
2017-10-09T14:43:50.404Z,79.36
2017-10-09T14:46:20.432Z,79.20
2017-10-09T14:48:49.727Z,79.35
2017-10-09T14:51:19.016Z,79.01
2017-10-09T14:53:48.212Z,79.18
2017-10-09T14:56:17.437Z,79.53
2017-10-09T14:58:47.422Z,79.88
2017-10-09T15:01:16.660Z,79.76
2017-10-09T15:03:45.893Z,79.82
2017-10-09T15:06:15.162Z,79.92
2017-10-09T15:08:44.388Z,80.27
2017-10-09T15:11:13.685Z,80.35
2017-10-09T15:13:42.938Z,80.37
2017-10-09T15:16:12.930Z,80.58
2017-10-09T15:18:42.155Z,80.69
2017-10-09T15:21:12.164Z,80.96
2017-10-09T15:23:42.158Z,81.15
2017-10-09T15:26:11.398Z,81.47
2017-10-09T15:28:41.381Z,81.69
2017-10-09T15:31:10.614Z,81.73
2017-10-09T15:33:39.828Z,81.89
2017-10-09T15:36:10.044Z,81.92
2017-10-09T15:38:39.259Z,81.93
2017-10-09T15:41:08.563Z,82.00
2017-10-09T15:43:37.786Z,82.05
2017-10-09T15:46:07.024Z,82.26
2017-10-09T15:48:37.062Z,82.18
2017-10-09T15:51:06.361Z,82.08
2017-10-09T15:53:35.608Z,81.89
2017-10-09T15:56:04.824Z,82.10
2017-10-09T15:58:34.839Z,82.18
2017-10-09T16:01:04.890Z,82.14
2017-10-09T16:03:34.118Z,82.31
2017-10-09T16:06:04.217Z,82.28
2017-10-09T16:08:33.442Z,82.46
2017-10-09T16:11:02.680Z,82.28
2017-10-09T16:13:32.690Z,82.44
2017-10-09T16:16:02.844Z,82.45
2017-10-09T16:18:32.070Z,82.63
2017-10-09T16:21:01.334Z,82.77
2017-10-09T16:23:30.591Z,82.66
2017-10-09T16:26:00.572Z,82.90
2017-10-09T16:28:29.806Z,82.99
2017-10-09T16:30:59.807Z,82.93
2017-10-09T16:33:29.338Z,83.26
2017-10-09T16:35:59.348Z,83.17
2017-10-09T16:38:29.331Z,83.29
2017-10-09T16:40:58.572Z,83.18
2017-10-09T16:43:27.786Z,82.98
2017-10-09T16:45:57.033Z,82.93
2017-10-09T16:48:26.329Z,82.83
2017-10-09T16:50:55.541Z,83.25
2017-10-09T16:53:24.763Z,83.31
2017-10-09T16:55:54.038Z,83.43
2017-10-09T16:58:23.284Z,83.54
2017-10-09T17:00:52.504Z,83.56
2017-10-09T17:03:21.742Z,83.89
2017-10-09T17:05:50.953Z,83.88
2017-10-09T17:08:20.943Z,84.22
2017-10-09T17:10:51.694Z,84.20
2017-10-09T17:13:21.699Z,84.19
2017-10-09T17:15:50.923Z,84.30
2017-10-09T17:18:20.232Z,84.39
2017-10-09T17:20:49.496Z,84.23
2017-10-09T17:23:19.515Z,84.32
2017-10-09T17:25:48.724Z,84.52
2017-10-09T17:28:18.726Z,84.76
2017-10-09T17:30:48.733Z,84.91
2017-10-09T17:33:18.828Z,84.83
2017-10-09T17:35:48.070Z,84.82
2017-10-09T17:38:18.073Z,84.84
2017-10-09T17:40:47.336Z,84.56
2017-10-09T17:43:16.568Z,84.37
2017-10-09T17:45:46.624Z,84.44
2017-10-09T17:48:15.869Z,84.50
2017-10-09T17:50:45.176Z,84.44
2017-10-09T17:53:14.395Z,84.67
2017-10-09T17:55:44.390Z,85.15
2017-10-09T17:58:14.396Z,85.54
2017-10-09T18:00:43.642Z,85.89
2017-10-09T18:03:12.904Z,85.88
2017-10-09T18:05:42.906Z,86.11
2017-10-09T18:08:12.173Z,86.74
2017-10-09T18:10:41.401Z,86.80
2017-10-09T18:13:10.628Z,86.77
2017-10-09T18:15:40.625Z,87.18
2017-10-09T18:18:09.880Z,87.22
2017-10-09T18:20:39.096Z,87.22
2017-10-09T18:23:08.314Z,87.27
2017-10-09T18:25:37.584Z,87.29
2017-10-09T18:28:06.796Z,87.22
2017-10-09T18:30:36.795Z,87.34
2017-10-09T18:33:06.030Z,87.28
2017-10-09T18:35:36.048Z,87.32
2017-10-09T18:38:06.048Z,87.24
2017-10-09T18:40:35.355Z,87.62
2017-10-09T18:43:04.587Z,87.44
2017-10-09T18:45:33.763Z,87.52
2017-10-09T18:48:03.051Z,87.77
2017-10-09T18:50:32.272Z,87.93
2017-10-09T18:53:02.297Z,88.39
2017-10-09T18:55:32.310Z,88.86
2017-10-09T18:58:02.375Z,89.74
2017-10-09T19:00:31.586Z,90.16
2017-10-09T19:03:00.816Z,90.28
2017-10-09T19:05:30.824Z,90.30
2017-10-09T19:08:00.045Z,89.75
2017-10-09T19:10:30.074Z,89.62
2017-10-09T19:12:59.295Z,89.82
2017-10-09T19:15:28.552Z,89.95
2017-10-09T19:17:58.569Z,90.03
2017-10-09T19:20:28.560Z,90.49
2017-10-09T19:22:57.847Z,90.29
2017-10-09T19:25:27.202Z,90.01
2017-10-09T19:27:56.391Z,89.73
2017-10-09T19:30:25.623Z,90.15
2017-10-09T19:32:54.872Z,89.55
2017-10-09T19:35:24.863Z,89.32
2017-10-09T19:37:54.873Z,89.52
2017-10-09T19:40:24.131Z,89.53
2017-10-09T19:42:53.371Z,89.48
2017-10-09T19:45:22.620Z,89.32
2017-10-09T19:47:51.850Z,89.36
2017-10-09T19:50:21.929Z,89.16
2017-10-09T19:52:51.895Z,89.14
2017-10-09T19:55:21.143Z,89.16
2017-10-09T19:57:50.372Z,89.26
2017-10-09T20:00:19.639Z,89.04
2017-10-09T20:02:48.867Z,88.93
2017-10-09T20:05:18.121Z,88.81
2017-10-09T20:07:48.153Z,88.72
2017-10-09T20:10:17.423Z,88.37
2017-10-09T20:12:47.420Z,88.51
2017-10-09T20:15:16.671Z,88.40
2017-10-09T20:17:45.915Z,88.30
2017-10-09T20:20:15.167Z,88.22
2017-10-09T20:22:44.418Z,88.17
2017-10-09T20:25:13.616Z,88.21
2017-10-09T20:27:43.799Z,88.25
2017-10-09T20:30:13.028Z,88.20
2017-10-09T20:32:42.252Z,88.24
2017-10-09T20:35:11.492Z,88.01
2017-10-09T20:37:40.999Z,88.06
2017-10-09T20:40:10.203Z,88.07
2017-10-09T20:42:39.467Z,88.21
2017-10-09T20:45:08.937Z,88.18
2017-10-09T20:47:38.131Z,88.06
2017-10-09T20:50:07.338Z,87.96
2017-10-09T20:52:36.583Z,88.08
2017-10-09T20:55:05.789Z,88.26
2017-10-09T20:57:35.127Z,88.45
2017-10-09T21:00:04.416Z,88.63
2017-10-09T21:02:34.697Z,88.70
2017-10-09T21:05:04.862Z,88.92
2017-10-09T21:07:34.091Z,88.90
2017-10-09T21:10:03.315Z,89.01
2017-10-09T21:12:32.552Z,89.07
2017-10-09T21:15:01.812Z,89.28
2017-10-09T21:17:31.025Z,89.33
2017-10-09T21:20:00.251Z,89.20
2017-10-09T21:22:29.487Z,89.17
2017-10-09T21:24:58.706Z,89.10
2017-10-09T21:27:27.955Z,89.28
2017-10-09T21:29:57.152Z,89.26
2017-10-09T21:32:26.395Z,89.05
2017-10-09T21:34:55.646Z,89.04
2017-10-09T21:37:25.664Z,89.19
2017-10-09T21:39:54.892Z,89.04
2017-10-09T21:42:24.139Z,89.02
2017-10-09T21:44:53.360Z,89.26
2017-10-09T21:47:23.432Z,89.52
2017-10-09T21:49:52.639Z,89.36
2017-10-09T21:52:21.868Z,89.49
2017-10-09T21:54:51.077Z,89.47
2017-10-09T21:57:21.086Z,89.74
2017-10-09T21:59:50.299Z,89.53
2017-10-09T22:02:20.309Z,89.59
2017-10-09T22:04:50.290Z,89.58
2017-10-09T22:07:19.556Z,89.39
2017-10-09T22:09:48.763Z,89.21
2017-10-09T22:12:18.023Z,89.37
2017-10-09T22:14:48.007Z,89.74
2017-10-09T22:17:17.240Z,89.27
2017-10-09T22:19:46.463Z,89.33
2017-10-09T22:22:15.701Z,89.28
2017-10-09T22:24:44.915Z,89.29
2017-10-09T22:27:14.183Z,89.22
2017-10-09T22:29:43.397Z,89.19
2017-10-09T22:32:12.605Z,89.08
2017-10-09T22:34:41.824Z,88.95
2017-10-09T22:37:11.044Z,88.91
2017-10-09T22:39:40.271Z,88.99
2017-10-09T22:42:09.488Z,88.86
2017-10-09T22:44:38.741Z,88.95
2017-10-09T22:47:07.964Z,88.67
2017-10-09T22:49:37.948Z,88.73
2017-10-09T22:52:07.219Z,88.87
2017-10-09T22:54:43.036Z,88.71
2017-10-09T22:57:12.244Z,88.47
2017-10-09T22:59:41.521Z,88.34
2017-10-09T23:02:10.731Z,88.46
2017-10-09T23:04:39.950Z,88.65
2017-10-09T23:07:09.155Z,88.69
2017-10-09T23:09:39.159Z,88.49
2017-10-09T23:12:08.384Z,88.47
2017-10-09T23:14:37.601Z,88.51
2017-10-09T23:17:06.836Z,88.49
2017-10-09T23:19:36.056Z,88.36
2017-10-09T23:22:05.268Z,88.43
2017-10-09T23:24:35.262Z,88.43
2017-10-09T23:27:04.473Z,88.50
2017-10-09T23:29:34.472Z,88.94
2017-10-09T23:32:03.697Z,88.88
2017-10-09T23:34:33.685Z,88.82
2017-10-09T23:37:02.955Z,88.74
2017-10-09T23:39:32.213Z,88.87
2017-10-09T23:42:02.195Z,89.00
2017-10-09T23:44:31.393Z,88.77
2017-10-09T23:47:00.677Z,88.61
2017-10-09T23:49:30.328Z,88.75
2017-10-09T23:52:00.311Z,88.96
2017-10-09T23:54:30.313Z,88.89
2017-10-09T23:56:59.527Z,88.96
2017-10-09T23:59:28.733Z,89.03
